Time;durP1;ratioP1;P1;durP2;ratioP2;P2;SDS_P1;SDS_P2;PMS_P1;PMS_P2;Temp;Humidity;BMP_temperature;BMP_pressure;BME280_temperature;BME280_humidity;BME280_pressure;Samples;Min_cycle;Max_cycle;Signal;HPM_P1;HPM_P2
2022/10/12 00:00:25;;;;;;;51.37;28.27;;;;;;;;;;6652023;28;20193;-90
2022/10/12 00:03:35;;;;;;;51.10;27.57;;;;;;;;;;6651672;28;20614;-90
2022/10/12 00:06:46;;;;;;;51.00;28.37;;;;;;;;;;6650974;28;20179;-90
2022/10/12 00:09:56;;;;;;;53.20;29.20;;;;;;;;;;6651664;28;20271;-90
2022/10/12 00:13:08;;;;;;;55.23;30.07;;;;;;;;;;6651764;28;20651;-90
2022/10/12 00:16:19;;;;;;;48.17;27.47;;;;;;;;;;6650628;28;20171;-90
2022/10/12 00:19:29;;;;;;;51.63;27.43;;;;;;;;;;6651372;28;20179;-90
2022/10/12 00:22:39;;;;;;;51.00;28.10;;;;;;;;;;6651191;28;20224;-90
2022/10/12 00:25:50;;;;;;;51.73;27.83;;;;;;;;;;6651286;28;20171;-90
2022/10/12 00:29:01;;;;;;;50.97;27.40;;;;;;;;;;6650175;28;20266;-90
2022/10/12 00:32:14;;;;;;;47.10;25.97;;;;;;;;;;6650268;28;20329;-90
2022/10/12 00:35:28;;;;;;;40.47;23.00;;;;;;;;;;6651236;28;20184;-90
2022/10/12 00:38:38;;;;;;;48.03;24.83;;;;;;;;;;6650466;28;20179;-90
2022/10/12 00:41:49;;;;;;;45.30;25.50;;;;;;;;;;6651065;28;20266;-90
2022/10/12 00:44:59;;;;;;;45.50;24.47;;;;;;;;;;6660324;22;20179;-89
2022/10/12 00:48:11;;;;;;;40.47;24.00;;;;;;;;;;6597909;28;20188;-90
2022/10/12 00:51:23;;;;;;;48.10;25.77;;;;;;;;;;6597214;28;20267;-91
2022/10/12 00:54:35;;;;;;;39.17;23.37;;;;;;;;;;6597536;28;20683;-91
2022/10/12 00:57:47;;;;;;;42.33;24.17;;;;;;;;;;6598795;28;20169;-90
2022/10/12 01:01:00;;;;;;;41.30;24.10;;;;;;;;;;6598390;28;20165;-91
2022/10/12 01:04:11;;;;;;;38.83;23.13;;;;;;;;;;6596712;28;20310;-90
2022/10/12 01:07:21;;;;;;;40.53;22.57;;;;;;;;;;6598737;28;20176;-90
2022/10/12 01:10:31;;;;;;;38.43;22.90;;;;;;;;;;6597854;28;20168;-91
2022/10/12 01:13:42;;;;;;;39.07;23.17;;;;;;;;;;6597329;28;20215;-90
2022/10/12 01:16:56;;;;;;;38.63;23.37;;;;;;;;;;6597168;28;20230;-90
2022/10/12 01:20:09;;;;;;;43.60;21.37;;;;;;;;;;6597835;28;20172;-91
2022/10/12 01:23:39;;;;;;;43.00;22.53;;;;;;;;;;6598075;28;20523;-91
2022/10/12 01:26:58;;;;;;;40.30;22.83;;;;;;;;;;6596668;28;20192;-90
2022/10/12 01:30:08;;;;;;;45.47;22.20;;;;;;;;;;6598581;28;20180;-91
2022/10/12 01:33:24;;;;;;;40.23;22.63;;;;;;;;;;6597554;28;20544;-90
2022/10/12 01:36:34;;;;;;;39.00;21.83;;;;;;;;;;6597576;28;20183;-90
2022/10/12 01:39:48;;;;;;;49.33;23.27;;;;;;;;;;6596375;28;20526;-90
2022/10/12 01:42:58;;;;;;;50.60;29.70;;;;;;;;;;6595269;28;20188;-90
2022/10/12 01:46:12;;;;;;;40.83;26.30;;;;;;;;;;6597425;28;20681;-90
2022/10/12 01:49:24;;;;;;;42.33;23.53;;;;;;;;;;6597098;28;20517;-90
2022/10/12 01:52:53;;;;;;;43.13;23.63;;;;;;;;;;6595653;28;20254;-90
2022/10/12 01:56:07;;;;;;;40.93;23.40;;;;;;;;;;6595969;28;20180;-90
2022/10/12 01:59:46;;;;;;;38.10;23.57;;;;;;;;;;6596022;28;20644;-90
2022/10/12 02:03:15;;;;;;;41.70;23.53;;;;;;;;;;6591754;28;20215;-90
2022/10/12 02:06:33;;;;;;;41.23;24.07;;;;;;;;;;6597876;28;20172;-90
2022/10/12 02:09:44;;;;;;;45.73;24.30;;;;;;;;;;6598387;28;20180;-90
2022/10/12 02:12:55;;;;;;;43.77;24.47;;;;;;;;;;6594930;28;20640;-90
2022/10/12 02:16:32;;;;;;;41.80;23.73;;;;;;;;;;6595174;28;20183;-91
2022/10/12 02:23:33;;;;;;;41.30;23.43;;;;;;;;;;6596091;28;20219;-90
2022/10/12 02:26:46;;;;;;;44.73;24.47;;;;;;;;;;6595001;28;20184;-90
2022/10/12 02:29:56;;;;;;;44.40;22.83;;;;;;;;;;6594769;28;20180;-91
2022/10/12 02:33:27;;;;;;;42.43;23.13;;;;;;;;;;6595327;28;20228;-90
2022/10/12 02:36:43;;;;;;;41.43;23.27;;;;;;;;;;6595910;28;20219;-90
2022/10/12 02:39:55;;;;;;;39.23;23.70;;;;;;;;;;6594599;28;20183;-90
2022/10/12 02:43:36;;;;;;;37.10;21.53;;;;;;;;;;6595956;28;20180;-90
2022/10/12 02:46:47;;;;;;;36.57;21.97;;;;;;;;;;6585607;28;20247;-90
2022/10/12 02:49:57;;;;;;;46.53;23.63;;;;;;;;;;6595421;28;20625;-90
2022/10/12 02:53:08;;;;;;;45.33;25.77;;;;;;;;;;6595358;28;20234;-90
2022/10/12 02:56:18;;;;;;;45.83;23.60;;;;;;;;;;6594511;28;20180;-90
2022/10/12 02:59:29;;;;;;;40.40;23.07;;;;;;;;;;6578541;28;20188;-90
2022/10/12 03:02:39;;;;;;;34.37;21.23;;;;;;;;;;6594498;28;20605;-90
2022/10/12 03:05:49;;;;;;;35.70;20.07;;;;;;;;;;6595451;28;20179;-90
2022/10/12 03:09:00;;;;;;;34.00;18.60;;;;;;;;;;6594219;28;20181;-90
2022/10/12 03:12:10;;;;;;;32.87;19.20;;;;;;;;;;6595548;28;20215;-90
2022/10/12 03:15:21;;;;;;;38.27;20.73;;;;;;;;;;6595608;28;20169;-90
2022/10/12 03:18:31;;;;;;;35.17;22.07;;;;;;;;;;6594689;28;20196;-90
2022/10/12 03:21:41;;;;;;;40.73;22.03;;;;;;;;;;6595597;28;20271;-90
2022/10/12 03:24:52;;;;;;;50.40;26.93;;;;;;;;;;6594597;28;20256;-90
2022/10/12 03:28:02;;;;;;;41.03;22.57;;;;;;;;;;6593773;28;20226;-90
2022/10/12 03:31:13;;;;;;;35.47;20.93;;;;;;;;;;6594183;28;20180;-90
2022/10/12 03:34:24;;;;;;;34.73;19.57;;;;;;;;;;6594150;28;20262;-90
2022/10/12 03:37:35;;;;;;;37.33;20.60;;;;;;;;;;6594648;28;20179;-90
2022/10/12 03:40:46;;;;;;;35.33;21.43;;;;;;;;;;6594115;28;20172;-90
2022/10/12 03:43:56;;;;;;;41.50;22.83;;;;;;;;;;6594951;28;20295;-90
2022/10/12 03:47:06;;;;;;;45.33;25.83;;;;;;;;;;6594862;28;20236;-89
2022/10/12 03:50:17;;;;;;;55.00;32.63;;;;;;;;;;6595923;28;20602;-89
2022/10/12 03:53:27;;;;;;;50.07;31.33;;;;;;;;;;6599487;28;20652;-90
2022/10/12 03:56:38;;;;;;;53.20;32.10;;;;;;;;;;6598872;28;20176;-89
2022/10/12 03:59:48;;;;;;;54.17;32.57;;;;;;;;;;6600229;28;20184;-89
2022/10/12 04:02:58;;;;;;;49.67;31.00;;;;;;;;;;6598615;28;20188;-89
2022/10/12 04:06:09;;;;;;;43.73;28.03;;;;;;;;;;6599648;28;20199;-90
2022/10/12 04:09:19;;;;;;;43.97;27.10;;;;;;;;;;6599171;28;20252;-90
2022/10/12 04:12:30;;;;;;;37.57;25.20;;;;;;;;;;6597701;28;20671;-90
2022/10/12 04:15:40;;;;;;;45.03;25.53;;;;;;;;;;6598672;28;20283;-89
2022/10/12 04:18:50;;;;;;;36.03;21.13;;;;;;;;;;6599614;28;20172;-90
2022/10/12 04:22:01;;;;;;;39.00;22.43;;;;;;;;;;6581500;28;20254;-90
2022/10/12 04:25:12;;;;;;;34.03;21.03;;;;;;;;;;6597549;28;20188;-90
2022/10/12 04:28:23;;;;;;;32.33;20.97;;;;;;;;;;6581512;28;20184;-90
2022/10/12 04:31:33;;;;;;;33.47;21.00;;;;;;;;;;6599562;28;20577;-89
2022/10/12 04:34:43;;;;;;;37.07;20.00;;;;;;;;;;6581203;28;20181;-89
2022/10/12 04:37:54;;;;;;;33.50;18.53;;;;;;;;;;6598878;28;20234;-89
2022/10/12 04:41:04;;;;;;;28.13;18.33;;;;;;;;;;6598291;28;20198;-89
2022/10/12 04:44:15;;;;;;;29.83;16.23;;;;;;;;;;6598402;28;20176;-89
2022/10/12 04:47:26;;;;;;;25.13;16.73;;;;;;;;;;6598602;28;20228;-89
2022/10/12 04:50:36;;;;;;;27.40;17.07;;;;;;;;;;6598524;28;20173;-89
2022/10/12 04:53:46;;;;;;;30.07;17.93;;;;;;;;;;6596710;28;20244;-89
2022/10/12 04:56:57;;;;;;;25.87;17.70;;;;;;;;;;6597218;28;20322;-89
2022/10/12 05:00:08;;;;;;;29.73;19.93;;;;;;;;;;6597214;28;20181;-90
2022/10/12 05:03:21;;;;;;;40.60;22.47;;;;;;;;;;6597423;28;20206;-89
2022/10/12 05:06:31;;;;;;;39.97;23.47;;;;;;;;;;6597916;28;20169;-89
2022/10/12 05:09:41;;;;;;;43.60;25.30;;;;;;;;;;6596774;28;20179;-90
2022/10/12 05:12:52;;;;;;;70.20;38.67;;;;;;;;;;6596991;28;20282;-89
2022/10/12 05:16:02;;;;;;;125.87;59.00;;;;;;;;;;6598712;28;20180;-89
2022/10/12 05:19:12;;;;;;;155.23;64.53;;;;;;;;;;6596867;28;20176;-90
2022/10/12 05:22:23;;;;;;;299.77;98.23;;;;;;;;;;6596634;28;20543;-89
2022/10/12 05:25:34;;;;;;;356.97;115.90;;;;;;;;;;6597796;28;20172;-89
2022/10/12 05:28:44;;;;;;;438.90;123.53;;;;;;;;;;6598218;28;20176;-89
2022/10/12 05:31:56;;;;;;;170.97;73.33;;;;;;;;;;6597600;28;20251;-90
2022/10/12 05:35:06;;;;;;;138.53;64.40;;;;;;;;;;6596542;28;20636;-89
2022/10/12 05:38:17;;;;;;;158.07;69.80;;;;;;;;;;6597188;28;20172;-90
2022/10/12 05:41:29;;;;;;;144.00;69.30;;;;;;;;;;6597778;28;20161;-89
2022/10/12 05:44:39;;;;;;;127.50;64.47;;;;;;;;;;6596136;28;20613;-90
2022/10/12 05:47:50;;;;;;;108.73;52.10;;;;;;;;;;6597597;28;20236;-89
2022/10/12 05:51:00;;;;;;;68.20;36.90;;;;;;;;;;6595659;28;20204;-90
2022/10/12 05:54:11;;;;;;;46.10;30.50;;;;;;;;;;6597116;28;20201;-90
2022/10/12 05:57:22;;;;;;;45.53;26.37;;;;;;;;;;6596100;28;20172;-90
2022/10/12 06:00:33;;;;;;;46.13;27.00;;;;;;;;;;6579638;28;20192;-90
2022/10/12 06:03:43;;;;;;;40.00;25.40;;;;;;;;;;6596796;28;20271;-90
2022/10/12 06:06:53;;;;;;;45.73;30.53;;;;;;;;;;6597279;28;20259;-90
2022/10/12 06:10:04;;;;;;;44.27;31.93;;;;;;;;;;6595565;28;20606;-90
2022/10/12 06:13:16;;;;;;;41.27;29.20;;;;;;;;;;6596617;28;20232;-90
2022/10/12 06:16:28;;;;;;;34.10;24.50;;;;;;;;;;6595017;28;20176;-90
2022/10/12 06:19:38;;;;;;;46.20;31.43;;;;;;;;;;6595345;28;20177;-90
2022/10/12 06:22:49;;;;;;;39.87;29.27;;;;;;;;;;6595863;28;20187;-90
2022/10/12 06:26:00;;;;;;;35.03;26.10;;;;;;;;;;6596519;28;20227;-90
2022/10/12 06:29:10;;;;;;;38.67;27.63;;;;;;;;;;6595328;28;20180;-90
2022/10/12 06:32:21;;;;;;;36.17;26.20;;;;;;;;;;6595267;28;20232;-90
2022/10/12 06:35:32;;;;;;;30.40;24.50;;;;;;;;;;6595641;28;20205;-90
2022/10/12 06:38:44;;;;;;;25.13;17.73;;;;;;;;;;6596702;28;20211;-90
2022/10/12 06:41:54;;;;;;;23.27;18.17;;;;;;;;;;6596215;28;20177;-89
2022/10/12 06:45:05;;;;;;;25.20;20.03;;;;;;;;;;6595575;28;20199;-90
2022/10/12 06:48:15;;;;;;;26.02;19.83;;;;;;;;;;6596210;28;20204;-90
2022/10/12 06:51:26;;;;;;;23.55;18.67;;;;;;;;;;6596595;28;20187;-90
2022/10/12 06:54:36;;;;;;;23.17;17.30;;;;;;;;;;6595867;28;20203;-90
2022/10/12 06:57:46;;;;;;;20.77;16.90;;;;;;;;;;6596053;28;20255;-90
2022/10/12 07:00:57;;;;;;;18.45;15.02;;;;;;;;;;6595226;28;20468;-90
2022/10/12 07:04:07;;;;;;;20.48;14.38;;;;;;;;;;6595560;28;20172;-90
2022/10/12 07:07:18;;;;;;;15.95;14.27;;;;;;;;;;6595298;28;20548;-91
2022/10/12 07:10:28;;;;;;;15.00;12.82;;;;;;;;;;6596010;28;20164;-90
2022/10/12 07:13:38;;;;;;;16.52;13.02;;;;;;;;;;6594836;28;20242;-90
2022/10/12 07:16:50;;;;;;;20.20;13.73;;;;;;;;;;6595887;28;20173;-90
2022/10/12 07:20:02;;;;;;;17.60;13.77;;;;;;;;;;6594232;28;20173;-89
2022/10/12 07:23:12;;;;;;;14.43;12.00;;;;;;;;;;6596711;28;20200;-90
2022/10/12 07:26:22;;;;;;;18.48;12.68;;;;;;;;;;6598614;28;20179;-89
2022/10/12 07:29:33;;;;;;;22.27;12.18;;;;;;;;;;6600801;28;20544;-90
2022/10/12 07:32:45;;;;;;;17.27;13.13;;;;;;;;;;6600727;28;20200;-89
2022/10/12 07:35:55;;;;;;;17.95;12.80;;;;;;;;;;6601063;28;20176;-89
2022/10/12 07:39:07;;;;;;;18.05;13.05;;;;;;;;;;6600649;28;20621;-89
2022/10/12 07:42:17;;;;;;;21.77;11.65;;;;;;;;;;6599015;28;20230;-89
2022/10/12 07:45:28;;;;;;;12.70;9.73;;;;;;;;;;6600120;28;20220;-89
2022/10/12 07:48:40;;;;;;;13.05;9.57;;;;;;;;;;6600471;28;20625;-89
2022/10/12 07:51:50;;;;;;;16.48;9.73;;;;;;;;;;6599945;28;20570;-89
2022/10/12 07:55:01;;;;;;;12.98;9.52;;;;;;;;;;6598663;28;20260;-88
2022/10/12 07:58:11;;;;;;;13.77;10.32;;;;;;;;;;6599776;28;20560;-89
2022/10/12 08:01:23;;;;;;;14.80;10.23;;;;;;;;;;6600195;28;20183;-88
2022/10/12 08:04:34;;;;;;;11.65;8.32;;;;;;;;;;6599659;28;20617;-88
2022/10/12 08:07:44;;;;;;;14.27;8.88;;;;;;;;;;6598721;28;20185;-88
2022/10/12 08:10:56;;;;;;;15.35;9.32;;;;;;;;;;6599613;28;20215;-88
2022/10/12 08:14:11;;;;;;;13.23;8.38;;;;;;;;;;6599702;28;20203;-89
2022/10/12 08:17:21;;;;;;;11.98;8.30;;;;;;;;;;6599829;28;20255;-89
2022/10/12 08:20:32;;;;;;;10.52;6.82;;;;;;;;;;6599406;28;20164;-90
2022/10/12 08:23:45;;;;;;;13.35;8.30;;;;;;;;;;6598119;28;20625;-89
2022/10/12 08:26:55;;;;;;;12.45;7.60;;;;;;;;;;6599573;28;20165;-88
2022/10/12 08:30:06;;;;;;;8.93;6.78;;;;;;;;;;6599531;28;20172;-89
2022/10/12 08:33:17;;;;;;;11.20;7.22;;;;;;;;;;6599409;28;20270;-89
2022/10/12 08:36:27;;;;;;;13.30;8.02;;;;;;;;;;6599053;28;20187;-89
2022/10/12 08:39:37;;;;;;;9.75;6.60;;;;;;;;;;6598244;28;20168;-88
2022/10/12 08:42:51;;;;;;;8.20;6.07;;;;;;;;;;6599515;28;20172;-90
2022/10/12 08:46:03;;;;;;;11.38;6.03;;;;;;;;;;6598034;28;20327;-89
2022/10/12 08:49:21;;;;;;;9.30;6.80;;;;;;;;;;6598719;28;20184;-89
2022/10/12 08:52:42;;;;;;;12.82;6.88;;;;;;;;;;6597892;28;20559;-90
2022/10/12 08:55:53;;;;;;;10.88;6.28;;;;;;;;;;6597990;28;20165;-89
2022/10/12 08:59:04;;;;;;;12.18;5.97;;;;;;;;;;6598376;28;20176;-90
2022/10/12 09:02:33;;;;;;;9.63;5.10;;;;;;;;;;6598071;28;20183;-89
2022/10/12 09:05:49;;;;;;;11.02;5.88;;;;;;;;;;6599051;28;20179;-89
2022/10/12 09:09:08;;;;;;;10.82;5.90;;;;;;;;;;6598283;28;20188;-88
2022/10/12 09:12:28;;;;;;;10.10;6.10;;;;;;;;;;6597816;28;20219;-88
2022/10/12 09:15:44;;;;;;;9.93;6.07;;;;;;;;;;6598226;28;20491;-88
2022/10/12 09:18:57;;;;;;;6.70;5.70;;;;;;;;;;6599144;28;20161;-88
2022/10/12 09:22:17;;;;;;;9.83;5.73;;;;;;;;;;6598269;28;20172;-89
2022/10/12 09:25:28;;;;;;;9.07;5.50;;;;;;;;;;6597753;28;20255;-88
2022/10/12 09:28:40;;;;;;;8.23;4.87;;;;;;;;;;6597271;28;20361;-88
2022/10/12 09:32:09;;;;;;;8.27;4.83;;;;;;;;;;6597504;28;20199;-89
2022/10/12 09:35:19;;;;;;;12.50;5.10;;;;;;;;;;6598274;28;20222;-88
2022/10/12 09:38:30;;;;;;;7.10;4.30;;;;;;;;;;6597942;28;20609;-88
2022/10/12 09:41:41;;;;;;;6.50;4.73;;;;;;;;;;6597801;28;20169;-89
2022/10/12 09:44:55;;;;;;;7.97;4.63;;;;;;;;;;6596916;28;20217;-88
2022/10/12 09:48:08;;;;;;;8.87;3.57;;;;;;;;;;6596895;28;20208;-89
2022/10/12 09:51:18;;;;;;;8.60;4.10;;;;;;;;;;6596982;28;20168;-89
2022/10/12 09:54:29;;;;;;;10.00;3.90;;;;;;;;;;6596426;28;20644;-89
2022/10/12 09:57:41;;;;;;;6.93;4.03;;;;;;;;;;6596992;28;20176;-88
2022/10/12 10:01:10;;;;;;;8.53;4.53;;;;;;;;;;6596845;28;20196;-88
2022/10/12 10:04:24;;;;;;;5.37;3.40;;;;;;;;;;6596733;28;20210;-88
2022/10/12 10:07:34;;;;;;;6.77;3.93;;;;;;;;;;6597149;28;20173;-88
2022/10/12 10:10:52;;;;;;;5.27;3.03;;;;;;;;;;6596962;28;20192;-88
2022/10/12 10:14:02;;;;;;;5.97;3.10;;;;;;;;;;6597154;28;20204;-89
2022/10/12 10:17:21;;;;;;;7.30;3.40;;;;;;;;;;6596052;28;20240;-89
2022/10/12 10:20:40;;;;;;;6.37;3.57;;;;;;;;;;6596527;28;20538;-89
2022/10/12 10:23:52;;;;;;;4.87;3.47;;;;;;;;;;6597088;28;20172;-88
2022/10/12 10:27:03;;;;;;;4.00;2.70;;;;;;;;;;6595495;28;20180;-88
2022/10/12 10:30:14;;;;;;;7.13;4.00;;;;;;;;;;6596760;28;20199;-88
2022/10/12 10:33:24;;;;;;;7.40;3.07;;;;;;;;;;6596305;28;20196;-87
2022/10/12 10:36:54;;;;;;;6.30;2.93;;;;;;;;;;6597182;28;20552;-88
2022/10/12 10:40:05;;;;;;;6.03;2.80;;;;;;;;;;6596511;28;20488;-87
2022/10/12 10:43:20;;;;;;;7.33;2.90;;;;;;;;;;6597023;28;20204;-88
2022/10/12 10:46:32;;;;;;;5.80;2.70;;;;;;;;;;6594658;28;20755;-88
2022/10/12 10:49:44;;;;;;;7.67;2.70;;;;;;;;;;6596244;28;20164;-89
2022/10/12 10:52:59;;;;;;;6.47;2.37;;;;;;;;;;6596137;28;20199;-89
2022/10/12 10:56:15;;;;;;;5.97;2.90;;;;;;;;;;6596866;28;20187;-88
2022/10/12 10:59:40;;;;;;;4.30;2.77;;;;;;;;;;6596702;28;20172;-89
2022/10/12 11:02:56;;;;;;;7.40;2.90;;;;;;;;;;6601150;28;20230;-89
2022/10/12 11:06:27;;;;;;;7.20;2.77;;;;;;;;;;6601073;28;20185;-89
2022/10/12 11:09:40;;;;;;;3.73;2.50;;;;;;;;;;6594213;28;20236;-89
2022/10/12 11:13:00;;;;;;;4.33;2.70;;;;;;;;;;6601147;28;20203;-89
2022/10/12 11:16:25;;;;;;;4.57;2.47;;;;;;;;;;6601811;28;20244;-89
2022/10/12 11:19:43;;;;;;;4.83;2.57;;;;;;;;;;6601535;28;20602;-88
2022/10/12 11:23:14;;;;;;;5.10;2.83;;;;;;;;;;6600943;28;20180;-89
2022/10/12 11:26:35;;;;;;;7.33;3.00;;;;;;;;;;6593410;28;20577;-88
2022/10/12 11:29:45;;;;;;;5.00;2.33;;;;;;;;;;6601503;28;20176;-88
2022/10/12 11:33:01;;;;;;;5.67;2.77;;;;;;;;;;6599298;28;20204;-88
2022/10/12 11:36:18;;;;;;;5.37;2.90;;;;;;;;;;6600719;28;20204;-89
2022/10/12 11:39:33;;;;;;;4.87;2.90;;;;;;;;;;6600385;28;20169;-89
2022/10/12 11:42:46;;;;;;;9.63;7.90;;;;;;;;;;6600474;28;20180;-89
2022/10/12 11:45:58;;;;;;;5.73;3.20;;;;;;;;;;6599615;28;20236;-89
2022/10/12 11:49:15;;;;;;;8.63;3.90;;;;;;;;;;6599956;28;20223;-89
2022/10/12 11:52:35;;;;;;;7.07;4.33;;;;;;;;;;6600116;28;20278;-90
2022/10/12 11:55:57;;;;;;;9.93;3.63;;;;;;;;;;6600883;28;20161;-89
2022/10/12 11:59:37;;;;;;;7.40;3.57;;;;;;;;;;6600014;28;20165;-89
2022/10/12 12:02:54;;;;;;;5.80;3.97;;;;;;;;;;6590742;28;20184;-89
2022/10/12 12:06:24;;;;;;;5.57;3.47;;;;;;;;;;6598697;28;20617;-90
2022/10/12 12:09:38;;;;;;;6.37;3.77;;;;;;;;;;6599990;28;20221;-90
2022/10/12 12:13:10;;;;;;;6.27;3.83;;;;;;;;;;6598994;28;20661;-89
2022/10/12 12:16:21;;;;;;;8.30;4.43;;;;;;;;;;6600664;28;20184;-89
2022/10/12 12:19:35;;;;;;;7.33;4.20;;;;;;;;;;6598922;28;20600;-89
2022/10/12 12:22:49;;;;;;;7.33;4.87;;;;;;;;;;6599813;28;20203;-90
2022/10/12 12:26:09;;;;;;;7.00;4.83;;;;;;;;;;6600135;28;20204;-90
2022/10/12 12:29:25;;;;;;;7.97;4.60;;;;;;;;;;6598991;28;20173;-89
2022/10/12 12:32:40;;;;;;;5.80;4.43;;;;;;;;;;6597927;28;20254;-90
2022/10/12 12:35:59;;;;;;;5.87;4.13;;;;;;;;;;6599396;28;20509;-89
2022/10/12 12:39:23;;;;;;;6.43;4.30;;;;;;;;;;6599195;28;20172;-89
2022/10/12 12:42:35;;;;;;;9.03;4.37;;;;;;;;;;6597748;28;20191;-89
2022/10/12 12:45:53;;;;;;;6.37;3.47;;;;;;;;;;6597762;28;20263;-90
2022/10/12 12:49:03;;;;;;;5.53;3.90;;;;;;;;;;6598508;28;20208;-89
2022/10/12 12:52:14;;;;;;;7.27;4.00;;;;;;;;;;6598877;28;20206;-89
2022/10/12 12:55:46;;;;;;;4.60;3.47;;;;;;;;;;6598750;28;20187;-89
2022/10/12 12:59:15;;;;;;;5.23;3.43;;;;;;;;;;6597458;28;20177;-89
2022/10/12 13:02:28;;;;;;;4.90;3.27;;;;;;;;;;6599127;28;20207;-89
2022/10/12 13:05:57;;;;;;;6.10;3.57;;;;;;;;;;6598644;28;20171;-89
2022/10/12 13:09:16;;;;;;;7.40;3.33;;;;;;;;;;6597948;28;20226;-89
2022/10/12 13:12:56;;;;;;;6.37;2.77;;;;;;;;;;6598367;28;20227;-89
2022/10/12 13:16:30;;;;;;;4.43;2.70;;;;;;;;;;6589055;28;20195;-89
2022/10/12 13:19:41;;;;;;;6.83;2.50;;;;;;;;;;6598242;28;20164;-89
2022/10/12 13:22:53;;;;;;;4.30;2.60;;;;;;;;;;6597755;28;20192;-89
2022/10/12 13:26:08;;;;;;;6.50;2.90;;;;;;;;;;6598899;28;20172;-90
2022/10/12 13:29:44;;;;;;;4.10;3.23;;;;;;;;;;6598076;28;20646;-89
2022/10/12 13:32:58;;;;;;;5.60;2.77;;;;;;;;;;6595860;28;20212;-90
2022/10/12 13:36:25;;;;;;;4.07;2.80;;;;;;;;;;6597445;28;20267;-89
2022/10/12 13:39:39;;;;;;;3.43;2.93;;;;;;;;;;6597693;28;20172;-90
2022/10/12 13:42:49;;;;;;;6.07;2.77;;;;;;;;;;6596376;28;20184;-90
2022/10/12 13:45:59;;;;;;;5.07;3.43;;;;;;;;;;6595924;28;20322;-90
2022/10/12 13:49:17;;;;;;;6.43;3.40;;;;;;;;;;6597264;28;20605;-90
2022/10/12 13:52:32;;;;;;;4.97;3.63;;;;;;;;;;6597389;28;20545;-89
2022/10/12 13:55:55;;;;;;;9.93;6.10;;;;;;;;;;6596824;28;20177;-90
2022/10/12 13:59:12;;;;;;;8.73;4.60;;;;;;;;;;6595612;28;20272;-90
2022/10/12 14:02:24;;;;;;;9.80;5.37;;;;;;;;;;6597728;28;20168;-90
2022/10/12 14:05:42;;;;;;;11.77;7.00;;;;;;;;;;6596175;28;20239;-90
2022/10/12 14:08:53;;;;;;;14.87;7.53;;;;;;;;;;6597820;28;20178;-90
2022/10/12 14:12:05;;;;;;;10.23;6.30;;;;;;;;;;6597004;28;20176;-90
2022/10/12 14:15:16;;;;;;;6.00;4.67;;;;;;;;;;6597368;28;20176;-90
2022/10/12 14:18:34;;;;;;;7.30;5.03;;;;;;;;;;6597008;28;20176;-90
2022/10/12 14:21:46;;;;;;;7.90;5.60;;;;;;;;;;6596197;28;20508;-91
2022/10/12 14:25:05;;;;;;;6.73;4.60;;;;;;;;;;6596540;28;20607;-90
2022/10/12 14:28:25;;;;;;;8.83;3.83;;;;;;;;;;6596777;28;20215;-91
2022/10/12 14:31:51;;;;;;;4.07;3.23;;;;;;;;;;6596767;28;20550;-91
2022/10/12 14:35:07;;;;;;;6.93;3.70;;;;;;;;;;6595287;28;20192;-90
2022/10/12 14:38:32;;;;;;;5.60;3.63;;;;;;;;;;6595651;28;20509;-90
2022/10/12 14:41:48;;;;;;;8.30;3.63;;;;;;;;;;6594947;28;20184;-90
2022/10/12 14:44:59;;;;;;;6.63;3.57;;;;;;;;;;6596342;28;20172;-90
2022/10/12 14:48:16;;;;;;;5.43;4.53;;;;;;;;;;6596255;28;20200;-90
2022/10/12 14:51:27;;;;;;;6.37;4.70;;;;;;;;;;6596438;28;20655;-90
2022/10/12 14:54:37;;;;;;;8.37;5.63;;;;;;;;;;6595860;28;20231;-91
2022/10/12 14:57:49;;;;;;;11.73;7.33;;;;;;;;;;6594068;28;20192;-91
2022/10/12 15:01:00;;;;;;;11.27;6.80;;;;;;;;;;6594649;28;20567;-91
2022/10/12 15:04:15;;;;;;;11.53;7.00;;;;;;;;;;6595206;28;20180;-91
2022/10/12 15:07:28;;;;;;;11.20;5.77;;;;;;;;;;6594857;28;20187;-91
2022/10/12 15:10:38;;;;;;;8.87;5.67;;;;;;;;;;6594421;28;20633;-91
2022/10/12 15:13:49;;;;;;;11.67;6.87;;;;;;;;;;6595164;28;20235;-91
2022/10/12 15:17:02;;;;;;;10.90;7.13;;;;;;;;;;6595046;28;20208;-91
2022/10/12 15:20:12;;;;;;;11.33;7.00;;;;;;;;;;6595769;28;20539;-91
2022/10/12 15:23:22;;;;;;;8.07;5.50;;;;;;;;;;6594409;28;20180;-91
2022/10/12 15:26:34;;;;;;;13.83;8.10;;;;;;;;;;6595633;28;20188;-91
2022/10/12 15:29:46;;;;;;;11.50;6.20;;;;;;;;;;6596219;28;20168;-91
2022/10/12 15:32:57;;;;;;;14.70;8.77;;;;;;;;;;6595851;28;20279;-91
2022/10/12 15:36:07;;;;;;;19.83;11.77;;;;;;;;;;6594390;28;20303;-91
2022/10/12 15:39:18;;;;;;;16.33;10.10;;;;;;;;;;6593794;28;20185;-91
2022/10/12 15:42:28;;;;;;;16.30;10.50;;;;;;;;;;6595244;28;20734;-91
2022/10/12 15:45:39;;;;;;;19.43;12.33;;;;;;;;;;6594883;28;20267;-91
2022/10/12 15:48:49;;;;;;;25.03;12.53;;;;;;;;;;6598847;28;20647;-92
2022/10/12 15:52:00;;;;;;;30.33;16.17;;;;;;;;;;6600129;28;20164;-92
2022/10/12 15:55:12;;;;;;;39.23;21.87;;;;;;;;;;6600433;28;20559;-91
2022/10/12 15:58:25;;;;;;;59.67;29.37;;;;;;;;;;6598185;28;20179;-91
2022/10/12 16:01:36;;;;;;;76.63;35.40;;;;;;;;;;6598810;28;20176;-92
2022/10/12 16:04:46;;;;;;;76.50;37.63;;;;;;;;;;6598007;28;20187;-92
2022/10/12 16:07:57;;;;;;;105.80;43.70;;;;;;;;;;6598454;28;20266;-91
2022/10/12 16:11:10;;;;;;;100.30;41.60;;;;;;;;;;6597674;28;20204;-92
2022/10/12 16:14:21;;;;;;;73.53;44.63;;;;;;;;;;6598399;28;20207;-92
2022/10/12 16:17:32;;;;;;;65.83;33.43;;;;;;;;;;6598436;28;20187;-91
2022/10/12 16:20:43;;;;;;;66.50;34.70;;;;;;;;;;6598110;28;20621;-91
2022/10/12 16:23:54;;;;;;;62.97;30.50;;;;;;;;;;6598030;28;20536;-91
2022/10/12 16:27:04;;;;;;;60.43;32.37;;;;;;;;;;6598021;28;20272;-92
2022/10/12 16:30:14;;;;;;;72.03;34.70;;;;;;;;;;6599446;28;20196;-92
2022/10/12 16:33:26;;;;;;;82.80;40.30;;;;;;;;;;6598996;28;20207;-92
2022/10/12 16:36:37;;;;;;;92.20;41.77;;;;;;;;;;6597958;28;20227;-92
2022/10/12 16:39:51;;;;;;;84.23;40.00;;;;;;;;;;6599849;28;20177;-92
2022/10/12 16:43:01;;;;;;;74.80;37.63;;;;;;;;;;6597724;28;20176;-92
2022/10/12 16:46:12;;;;;;;73.03;37.70;;;;;;;;;;6597028;28;20240;-92
2022/10/12 16:49:35;;;;;;;73.57;36.47;;;;;;;;;;6597919;28;20176;-93
2022/10/12 16:52:56;;;;;;;70.67;35.87;;;;;;;;;;6597713;28;20200;-92
2022/10/12 16:59:59;;;;;;;60.63;33.60;;;;;;;;;;6584228;28;20659;-93
2022/10/12 17:03:23;;;;;;;78.63;40.10;;;;;;;;;;6597291;28;20184;-93
2022/10/12 17:06:33;;;;;;;79.77;42.37;;;;;;;;;;6597594;28;20191;-93
2022/10/12 17:09:44;;;;;;;76.47;39.80;;;;;;;;;;6597796;28;20509;-92
2022/10/12 17:12:55;;;;;;;71.90;37.60;;;;;;;;;;6596951;28;20203;-93
2022/10/12 17:16:48;;;;;;;110.33;51.67;;;;;;;;;;6597403;28;20260;-93
2022/10/12 17:19:38;;;;;;;100.13;47.37;;;;;;;;;;6618834;28;20235;-93
2022/10/12 17:22:49;;;;;;;90.77;45.00;;;;;;;;;;6596787;28;20277;-93
2022/10/12 17:26:00;;;;;;;88.43;44.63;;;;;;;;;;6580272;28;20522;-93
2022/10/12 17:29:13;;;;;;;88.10;44.20;;;;;;;;;;6596129;28;20188;-93
2022/10/12 17:32:25;;;;;;;88.47;43.63;;;;;;;;;;6596697;28;20236;-93
2022/10/12 17:35:41;;;;;;;88.80;44.40;;;;;;;;;;6596858;28;20176;-92
2022/10/12 17:38:53;;;;;;;85.50;46.67;;;;;;;;;;6597692;28;20180;-93
2022/10/12 17:42:04;;;;;;;77.33;41.90;;;;;;;;;;6596855;28;20173;-93
2022/10/12 17:45:24;;;;;;;76.53;43.97;;;;;;;;;;6582942;28;20644;-93
2022/10/12 17:48:37;;;;;;;85.50;46.03;;;;;;;;;;6633189;22;20243;-93
2022/10/12 17:51:48;;;;;;;79.20;43.60;;;;;;;;;;6656923;28;20174;-94
2022/10/12 17:55:00;;;;;;;71.53;41.27;;;;;;;;;;6653616;28;20572;-93
2022/10/12 17:58:11;;;;;;;57.53;33.80;;;;;;;;;;6654812;28;20186;-93
2022/10/12 18:01:22;;;;;;;56.23;32.67;;;;;;;;;;6657573;28;20244;-93
2022/10/12 18:04:32;;;;;;;69.43;43.23;;;;;;;;;;6661933;28;20170;-93
2022/10/12 18:07:42;;;;;;;55.77;36.03;;;;;;;;;;6675697;28;20178;-93
2022/10/12 18:10:53;;;;;;;64.60;37.77;;;;;;;;;;6663710;28;20531;-94
2022/10/12 18:14:05;;;;;;;60.50;36.43;;;;;;;;;;6658632;28;20297;-93
2022/10/12 18:17:25;;;;;;;61.50;36.30;;;;;;;;;;6657765;28;20176;-93
2022/10/12 18:20:38;;;;;;;115.07;57.43;;;;;;;;;;6674418;28;20209;-93
2022/10/12 18:23:49;;;;;;;121.90;58.33;;;;;;;;;;6653088;28;20178;-92
2022/10/12 18:27:00;;;;;;;96.93;52.00;;;;;;;;;;6675802;28;20178;-93
2022/10/12 18:30:11;;;;;;;91.07;48.07;;;;;;;;;;6657473;28;20174;-94
2022/10/12 18:37:50;;;;;;;88.67;48.40;;;;;;;;;;6674472;28;20260;-93
2022/10/12 18:41:10;;;;;;;95.17;50.33;;;;;;;;;;6672592;28;20216;-94
2022/10/12 18:44:20;;;;;;;95.27;48.90;;;;;;;;;;6657502;28;20691;-92
2022/10/12 18:47:35;;;;;;;91.37;48.50;;;;;;;;;;6689821;28;20237;-93
2022/10/12 18:50:45;;;;;;;115.80;59.23;;;;;;;;;;6701556;28;20190;-93
2022/10/12 18:53:59;;;;;;;120.87;60.00;;;;;;;;;;6682843;28;20201;-94
2022/10/12 18:57:10;;;;;;;93.97;53.07;;;;;;;;;;6682919;28;20609;-94
2022/10/12 19:00:20;;;;;;;126.53;63.27;;;;;;;;;;6682896;28;20208;-93
2022/10/12 19:03:31;;;;;;;142.70;73.20;;;;;;;;;;6684342;28;20622;-92
2022/10/12 19:06:41;;;;;;;143.10;73.73;;;;;;;;;;6682255;28;20196;-92
2022/10/12 19:09:52;;;;;;;157.30;76.67;;;;;;;;;;6682848;28;20216;-93